MSC Regina — 3FGF9 — position and weather

sailwx.info

Track history (hours):
 
Tides and Currents Weather Stations Pressure Air Temp Water Temp Dewpoint Dewpoint Depression Visibility Wind Speed Wind Dir Waves Ship Positions

MSC Regina

Last reported at 2014-Dec-21 17:20 UTC. Time now 2014-Dec-21 20:08 UTC.
Position N 39°26' W 000°18'.

Length 259 m; draft 10.5 m.

Type: Ship (hazmat cat A). MMSI: 357332000.

Date/timePositionNaut miles runAvg speedWind from/ knotsBaromVisibWave heightAir tempDewpointWater temp
2014-Dec-21 17:20N 39°26' W 000°18'1 1.1
2014-Dec-21 16:33N 39°26' W 000°19'0 0.0
2014-Dec-21 15:33N 39°26' W 000°19'0 0.0
2014-Dec-21 14:21N 39°26' W 000°19'0 0.0
2014-Dec-21 13:33N 39°26' W 000°19'0 0.0
2014-Dec-21 12:33N 39°26' W 000°19'0 0.0
2014-Dec-21 11:30N 39°26' W 000°19'0 0.0
2014-Dec-21 10:30N 39°26' W 000°19'0 0.0
2014-Dec-21 09:33N 39°26' W 000°19'0 0.0
2014-Dec-21 08:33N 39°26' W 000°19'0 0.0
2014-Dec-21 07:33N 39°26' W 000°19'0 0.0
2014-Dec-21 06:33N 39°26' W 000°19'0 0.0
2014-Dec-21 05:33N 39°26' W 000°19'0 0.0
2014-Dec-21 04:30N 39°26' W 000°19'0 0.0
2014-Dec-21 03:30N 39°26' W 000°19'0 0.0
2014-Dec-21 02:33N 39°26' W 000°19'0 0.0
2014-Dec-21 01:33N 39°26' W 000°19'0 0.1
2014-Dec-21 00:33N 39°26' W 000°19'3 2.6
2014-Dec-20 23:33N 39°25' W 000°16'2 2.2
2014-Dec-20 22:33N 39°26' W 000°13'10 9.6
2014-Dec-20 21:32N 39°30' W 000°02'4815.2
2014-Dec-20 18:22N 39°50' E 000°56'1316.1
2014-Dec-20 17:33N 39°57' E 001°10'1616.1
2014-Dec-20 16:33N 40°06' E 001°28'1616.0
2014-Dec-20 15:33N 40°15' E 001°44'1615.7
2014-Dec-20 14:33N 40°25' E 002°01'1615.7
2014-Dec-20 13:33N 40°34' E 002°17'1716.8
2014-Dec-20 12:33N 40°44' E 002°36'1616.4
2014-Dec-20 11:33N 40°53' E 002°54'1515.5
2014-Dec-20 10:33N 41°01' E 003°11'1616.0
2014-Dec-20 09:33N 41°10' E 003°29'27019.1
2014-Dec-19 19:28N 43°29' E 008°41'1820.2
2014-Dec-19 18:33N 43°38' E 009°03'2020.2
2014-Dec-19 17:34N 43°49' E 009°27'2020.0
2014-Dec-19 16:33N 43°60' E 009°50'7 6.7
2014-Dec-19 15:33N 44°06' E 009°51'0 0.0
2014-Dec-19 14:33N 44°06' E 009°51'0 0.0
2014-Dec-19 13:33N 44°06' E 009°51'0 0.0
2014-Dec-19 12:33N 44°06' E 009°51'0 0.0
2014-Dec-19 11:33N 44°06' E 009°51'0 0.0
2014-Dec-19 10:33N 44°06' E 009°51'0 0.0
2014-Dec-19 09:33N 44°06' E 009°51'0 0.0
2014-Dec-19 08:32N 44°06' E 009°51'0 0.0
2014-Dec-19 07:33N 44°06' E 009°51'0 0.0
2014-Dec-19 06:33N 44°06' E 009°51'0 0.0
2014-Dec-19 05:33N 44°06' E 009°51'0 0.0
2014-Dec-19 04:33N 44°06' E 009°51'0 0.0
2014-Dec-19 03:32N 44°06' E 009°51'0 0.0
2014-Dec-19 02:33N 44°06' E 009°51'0 0.0
2014-Dec-19 01:33N 44°06' E 009°51'0 0.0
2014-Dec-19 00:33N 44°06' E 009°51'0 0.0
2014-Dec-18 23:32N 44°06' E 009°51'0 0.0
2014-Dec-18 22:33N 44°06' E 009°51'0 0.0
2014-Dec-18 21:32N 44°06' E 009°51'0 0.0
2014-Dec-18 20:32N 44°06' E 009°51'0 0.0
2014-Dec-18 19:32N 44°06' E 009°51'0 0.0
2014-Dec-18 18:33N 44°06' E 009°51'3 2.9
2014-Dec-18 17:34N 44°04' E 009°52'1312.8
2014-Dec-18 16:33N 43°51' E 009°52'2121.2
2014-Dec-18 15:33N 43°31' E 009°44'2121.0
2014-Dec-18 14:33N 43°11' E 009°54'2120.6
2014-Dec-18 13:33N 42°51' E 010°01'2120.1
2014-Dec-18 12:32N 42°34' E 010°16'2120.9
2014-Dec-18 11:32N 42°19' E 010°36'15120.9
2014-Dec-18 04:18N 40°34' E 013°01'18410.7
2014-Dec-17 11:07N 38°27' E 015°54'0 0.0
2014-Dec-17 10:17N 38°27' E 015°54'18 0.9
2014-Dec-16 14:25N 38°23' E 015°32'1315.2
2014-Dec-16 13:33N 38°20' E 015°16'1414.0
2014-Dec-16 12:31N 38°17' E 014°58'5315.3
2014-Dec-16 09:04N 38°17' E 013°50'814.9
2014-Dec-16 08:33N 38°17' E 013°41'1515.1
2014-Dec-16 07:33N 38°18' E 013°21'1717.2
2014-Dec-16 06:34N 38°17' E 012°60'1817.6
2014-Dec-16 05:33N 38°18' E 012°37'86919.7
2014-Dec-14 09:33N 35°60' W 005°19'3022.0
2014-Dec-14 08:12N 35°55' W 005°55'18714.8
2014-Dec-13 19:33N 37°42' W 009°07'1717.6
2014-Dec-13 18:33N 37°54' W 008°51'2 1.7
2014-Dec-13 17:31N 37°56' W 008°51'0 0.0
2014-Dec-13 16:31N 37°56' W 008°51'0 0.0
2014-Dec-13 15:31N 37°56' W 008°51'0 0.0
2014-Dec-13 14:31N 37°56' W 008°51'0 0.0
2014-Dec-13 13:31N 37°56' W 008°51'0 0.0
2014-Dec-13 12:31N 37°56' W 008°51'0 0.0
2014-Dec-13 11:31N 37°56' W 008°51'0 0.0
2014-Dec-13 10:31N 37°56' W 008°51'0 0.0
2014-Dec-13 09:31N 37°56' W 008°51'0 0.0
2014-Dec-13 08:31N 37°56' W 008°51'0 0.0
2014-Dec-13 07:31N 37°56' W 008°51'0 0.0
2014-Dec-13 06:31N 37°56' W 008°51'0 0.0
2014-Dec-13 05:31N 37°56' W 008°51'0 0.0
2014-Dec-13 04:31N 37°56' W 008°51'0 0.0
2014-Dec-13 03:31N 37°56' W 008°51'0 0.0
2014-Dec-13 02:32N 37°56' W 008°51'1 1.4
2014-Dec-13 01:33N 37°55' W 008°51'1 0.8
2014-Dec-13 00:32N 37°55' W 008°52'4 3.8
2014-Dec-12 23:33N 37°54' W 008°57'1 1.0
2014-Dec-12 22:33N 37°53' W 008°58'4 3.9
2014-Dec-12 21:33N 37°55' W 009°02'1514.5
2014-Dec-12 20:33N 37°57' W 009°21'1514.8
2014-Dec-12 19:33N 37°59' W 009°39'1514.8
2014-Dec-12 18:32N 38°00' W 009°58'2114.8
2014-Dec-12 17:08N 38°03' W 010°24'914.8
2014-Dec-12 16:33N 38°04' W 010°35'1514.6
2014-Dec-12 15:33N 38°06' W 010°53'1514.6
2014-Dec-12 14:30N 38°08' W 011°13'1614.5
2014-Dec-12 13:25N 38°10' W 011°32'1414.5
2014-Dec-12 12:27N 38°12' W 011°50'  
Track history (hours):
 
Tides and Currents Weather Stations Pressure Air Temp Water Temp Dewpoint Dewpoint Depression Visibility Wind Speed Wind Dir Waves Ship Positions

MSC Regina

Last reported at 2014-Dec-21 17:20 UTC. Time now 2014-Dec-21 20:08 UTC.
Position N 39°26' W 000°18'.

Length 259 m; draft 10.5 m.

Type: Ship (hazmat cat A). MMSI: 357332000.

Date/timePositionNaut miles runAvg speedWind from/ knotsBaromVisibWave heightAir tempDewpointWater temp
2014-Dec-21 17:20N 39°26' W 000°18'1 1.1
2014-Dec-21 16:33N 39°26' W 000°19'0 0.0
2014-Dec-21 15:33N 39°26' W 000°19'0 0.0
2014-Dec-21 14:21N 39°26' W 000°19'0 0.0
2014-Dec-21 13:33N 39°26' W 000°19'0 0.0
2014-Dec-21 12:33N 39°26' W 000°19'0 0.0
2014-Dec-21 11:30N 39°26' W 000°19'0 0.0
2014-Dec-21 10:30N 39°26' W 000°19'0 0.0
2014-Dec-21 09:33N 39°26' W 000°19'0 0.0
2014-Dec-21 08:33N 39°26' W 000°19'0 0.0
2014-Dec-21 07:33N 39°26' W 000°19'0 0.0
2014-Dec-21 06:33N 39°26' W 000°19'0 0.0
2014-Dec-21 05:33N 39°26' W 000°19'0 0.0
2014-Dec-21 04:30N 39°26' W 000°19'0 0.0
2014-Dec-21 03:30N 39°26' W 000°19'0 0.0
2014-Dec-21 02:33N 39°26' W 000°19'0 0.0
2014-Dec-21 01:33N 39°26' W 000°19'0 0.1
2014-Dec-21 00:33N 39°26' W 000°19'3 2.6
2014-Dec-20 23:33N 39°25' W 000°16'2 2.2
2014-Dec-20 22:33N 39°26' W 000°13'10 9.6
2014-Dec-20 21:32N 39°30' W 000°02'4815.2
2014-Dec-20 18:22N 39°50' E 000°56'1316.1
2014-Dec-20 17:33N 39°57' E 001°10'1616.1
2014-Dec-20 16:33N 40°06' E 001°28'1616.0
2014-Dec-20 15:33N 40°15' E 001°44'1615.7
2014-Dec-20 14:33N 40°25' E 002°01'1615.7
2014-Dec-20 13:33N 40°34' E 002°17'1716.8
2014-Dec-20 12:33N 40°44' E 002°36'1616.4
2014-Dec-20 11:33N 40°53' E 002°54'1515.5
2014-Dec-20 10:33N 41°01' E 003°11'1616.0
2014-Dec-20 09:33N 41°10' E 003°29'27019.1
2014-Dec-19 19:28N 43°29' E 008°41'1820.2
2014-Dec-19 18:33N 43°38' E 009°03'2020.2
2014-Dec-19 17:34N 43°49' E 009°27'2020.0
2014-Dec-19 16:33N 43°60' E 009°50'7 6.7
2014-Dec-19 15:33N 44°06' E 009°51'0 0.0
2014-Dec-19 14:33N 44°06' E 009°51'0 0.0
2014-Dec-19 13:33N 44°06' E 009°51'0 0.0
2014-Dec-19 12:33N 44°06' E 009°51'0 0.0
2014-Dec-19 11:33N 44°06' E 009°51'0 0.0
2014-Dec-19 10:33N 44°06' E 009°51'0 0.0
2014-Dec-19 09:33N 44°06' E 009°51'0 0.0
2014-Dec-19 08:32N 44°06' E 009°51'0 0.0
2014-Dec-19 07:33N 44°06' E 009°51'0 0.0
2014-Dec-19 06:33N 44°06' E 009°51'0 0.0
2014-Dec-19 05:33N 44°06' E 009°51'0 0.0
2014-Dec-19 04:33N 44°06' E 009°51'0 0.0
2014-Dec-19 03:32N 44°06' E 009°51'0 0.0
2014-Dec-19 02:33N 44°06' E 009°51'0 0.0
2014-Dec-19 01:33N 44°06' E 009°51'0 0.0
2014-Dec-19 00:33N 44°06' E 009°51'0 0.0
2014-Dec-18 23:32N 44°06' E 009°51'0 0.0
2014-Dec-18 22:33N 44°06' E 009°51'0 0.0
2014-Dec-18 21:32N 44°06' E 009°51'0 0.0
2014-Dec-18 20:32N 44°06' E 009°51'0 0.0
2014-Dec-18 19:32N 44°06' E 009°51'0 0.0
2014-Dec-18 18:33N 44°06' E 009°51'3 2.9
2014-Dec-18 17:34N 44°04' E 009°52'1312.8
2014-Dec-18 16:33N 43°51' E 009°52'2121.2
2014-Dec-18 15:33N 43°31' E 009°44'2121.0
2014-Dec-18 14:33N 43°11' E 009°54'2120.6
2014-Dec-18 13:33N 42°51' E 010°01'2120.1
2014-Dec-18 12:32N 42°34' E 010°16'2120.9
2014-Dec-18 11:32N 42°19' E 010°36'15120.9
2014-Dec-18 04:18N 40°34' E 013°01'18410.7
2014-Dec-17 11:07N 38°27' E 015°54'0 0.0
2014-Dec-17 10:17N 38°27' E 015°54'18 0.9
2014-Dec-16 14:25N 38°23' E 015°32'1315.2
2014-Dec-16 13:33N 38°20' E 015°16'1414.0
2014-Dec-16 12:31N 38°17' E 014°58'5315.3
2014-Dec-16 09:04N 38°17' E 013°50'814.9
2014-Dec-16 08:33N 38°17' E 013°41'1515.1
2014-Dec-16 07:33N 38°18' E 013°21'1717.2
2014-Dec-16 06:34N 38°17' E 012°60'1817.6
2014-Dec-16 05:33N 38°18' E 012°37'86919.7
2014-Dec-14 09:33N 35°60' W 005°19'3022.0
2014-Dec-14 08:12N 35°55' W 005°55'18714.8
2014-Dec-13 19:33N 37°42' W 009°07'1717.6
2014-Dec-13 18:33N 37°54' W 008°51'2 1.7
2014-Dec-13 17:31N 37°56' W 008°51'0 0.0
2014-Dec-13 16:31N 37°56' W 008°51'0 0.0
2014-Dec-13 15:31N 37°56' W 008°51'0 0.0
2014-Dec-13 14:31N 37°56' W 008°51'0 0.0
2014-Dec-13 13:31N 37°56' W 008°51'0 0.0
2014-Dec-13 12:31N 37°56' W 008°51'0 0.0
2014-Dec-13 11:31N 37°56' W 008°51'0 0.0
2014-Dec-13 10:31N 37°56' W 008°51'0 0.0
2014-Dec-13 09:31N 37°56' W 008°51'0 0.0
2014-Dec-13 08:31N 37°56' W 008°51'0 0.0
2014-Dec-13 07:31N 37°56' W 008°51'0 0.0
2014-Dec-13 06:31N 37°56' W 008°51'0 0.0
2014-Dec-13 05:31N 37°56' W 008°51'0 0.0
2014-Dec-13 04:31N 37°56' W 008°51'0 0.0
2014-Dec-13 03:31N 37°56' W 008°51'0 0.0
2014-Dec-13 02:32N 37°56' W 008°51'1 1.4
2014-Dec-13 01:33N 37°55' W 008°51'1 0.8
2014-Dec-13 00:32N 37°55' W 008°52'4 3.8
2014-Dec-12 23:33N 37°54' W 008°57'1 1.0
2014-Dec-12 22:33N 37°53' W 008°58'4 3.9
2014-Dec-12 21:33N 37°55' W 009°02'1514.5
2014-Dec-12 20:33N 37°57' W 009°21'1514.8
2014-Dec-12 19:33N 37°59' W 009°39'1514.8
2014-Dec-12 18:32N 38°00' W 009°58'2114.8
2014-Dec-12 17:08N 38°03' W 010°24'914.8
2014-Dec-12 16:33N 38°04' W 010°35'1514.6
2014-Dec-12 15:33N 38°06' W 010°53'1514.6
2014-Dec-12 14:30N 38°08' W 011°13'1614.5
2014-Dec-12 13:25N 38°10' W 011°32'1414.5
2014-Dec-12 12:27N 38°12' W 011°50'  

Dump ship's entire track history